Pagina principale
METAR-TAF:

METAR-TAF

Aeroporti :

Cerklje ob Krki, Slovenia

latitudine: 45-53-59N, longitudine: 15-30-55E, altezza: 157 m

Osservazione

Il bollettino è stato emesso 28 minuti fa, alle 13:00 UTC
Vento 7 kt da est, variando fra nord-est e est/sud-est
Temperature 22°C
Umidità 69%
Pressione 1017 hPa
Visibilità 10 km o più
Poco nuvoloso ad un'altezza di 3000 ft
Nuvoloso ad un'altezza di 5000 ft

METAR: LJCE 271300Z 08007KT 050V110 9999 FEW030 BKN050 22/16 Q1017 RMK BLU

Ora: 15:28 (13:28 UTC)

Previsione

Il bollettino è stato emesso 2 ore e 28 minuti fa, alle 11:00 UTC
Previsione valida dal 27 alle 12 UTC al 27 alle 21 UTC
Vento 5 kt da ovest/sud-ovest
Visibilità 10 km o più
Poco nuvoloso ad un'altezza di 3000 ft
Probabilità 30% :
Temporaneamente
dal 27 alle 12 UTC al 27 alle 15 UTC
Nubi sparse ad un'altezza di 3000 ft, Cumulo congesto.

TAF: LJCE 271100Z 2712/2721 25005KT 9999 FEW030 PROB30 TEMPO 2712/2715 SCT030TCU

Osservazioni e previsioni meteorologiche di più di 4000 aeroporti (messaggi METAR e TAF).

Le stazioni disponibili sono rappresentate dai dischi gialli e rossi sulla carta.

Puntare il mouse per vedere il nome della stazione.

Clicca sopra per visualizzare le osservazioni e previsioni meteorologiche.

Per cambiare la mappa : fare clic sui pulsanti verdi con una croce nera per ingrandire, il pulsante verde con un trattino per diminuire, o sulla freccia verde per le mappe adiacenti.


METAR-TAF: